• Join FlightAware (Why Join?)
  • Login
  • US Flag 
02:45AM EDT


 

Airport Tracker/Info


-or-


 

Live Flight TrackerFlight Track Log ✈ VH-ZCS ✈ 28-Sep-2013 ✈ YSBK / BWU - YMMB / MBW

Flight Track Log - Related Links

Times and Time Zones

All times are in EDT time to prevent confusion due to time zone crossing. See the VH-ZCS flight status page for this flight to view local times or setup timezone preferences in your user account.

Time Position Orientation Groundspeed Altitude Reporting Facility
EDT Latitude Longitude Course Direction KTS MPH feet Rate Location/Type
11:44PM -33.9170 150.9794 300° West 80 92 500  Level Aus ATC (RADAR)
11:44PM -33.9107 150.9660 300° West 76 87 1,300 1,260 Climbing Aus ATC (RADAR)
11:45PM -33.9030 150.9538 307° West 73 84 2,000 900 Climbing Aus ATC (RADAR)
11:46PM -33.8888 150.9319 308° West 84 97 2,800 960 Climbing Aus ATC (RADAR)
11:46PM -33.8818 150.9196 304° West 98 113 3,400 1,080 Climbing Aus ATC (RADAR)
11:47PM -33.8731 150.9038 304° West 93 107 3,900 420 Climbing Aus ATC (RADAR)
11:47PM -33.8885 150.8784 234° Southwest 123 142 4,000 60 Climbing Aus ATC (RADAR)
11:48PM -33.9027 150.8537 235° Southwest 149 171 4,000 60 Level Aus ATC (RADAR)
11:49PM -33.9250 150.8145 236° Southwest 133 153 4,100 120 Climbing Aus ATC (RADAR)
11:49PM -33.9304 150.8046 236° Southwest 135 155 4,200 1,320 Climbing Aus ATC (RADAR)
11:50PM -33.9408 150.7885 232° Southwest 118 136 5,100 480 Climbing Aus ATC (RADAR)
11:51PM -33.9614 150.7540 234° Southwest 126 145 5,000 -120 Descending Aus ATC (RADAR)
11:51PM -33.9702 150.7380 236° Southwest 132 152 5,000 60 Level Aus ATC (RADAR)
11:52PM -33.9917 150.7281 201° Southwest 156 180 5,100  Climbing Aus ATC (RADAR)
11:53PM -34.0256 150.7247 185° South 163 188 5,000 -120 Descending Aus ATC (RADAR)
11:53PM -34.0520 150.7244 181° South 164 189 5,000  Level Aus ATC (RADAR)
11:54PM -34.0787 150.7268 176° South 165 190 5,000 60 Level Aus ATC (RADAR)
11:54PM -34.1036 150.7276 179° South 154 177 5,100  Climbing Aus ATC (RADAR)
11:55PM -34.1284 150.7267 182° South 153 176 5,000 -60 Descending Aus ATC (RADAR)
11:56PM -34.1754 150.7305 176° South 144 166 5,000  Level Aus ATC (RADAR)
11:56PM -34.1924 150.7318 176° South 147 169 5,000 660 Level Aus ATC (RADAR)
11:57PM -34.2153 150.7320 180° South 140 161 5,700 1,080 Climbing Aus ATC (RADAR)
11:58PM -34.2436 150.7364 173° South 136 157 6,500 1,200 Climbing Aus ATC (RADAR)
11:58PM -34.2534 150.7224 230° Southwest 92 106 7,300 1,500 Climbing Aus ATC (RADAR)
11:59PM -34.2654 150.7058 229° Southwest 84 97 8,500 1,500 Climbing Aus ATC (RADAR)
11:59PM -34.2719 150.6964 230° Southwest 84 97 9,100 1,200 Climbing Aus ATC (RADAR)
12:00AM -34.2822 150.6812 231° Southwest 85 98 9,800 660 Climbing Aus ATC (RADAR)
12:01AM -34.2972 150.6584 232° Southwest 109 125 10,100 120 Climbing Aus ATC (RADAR)
12:01AM -34.3079 150.6429 230° Southwest 135 155 10,000 -120 Descending Aus ATC (RADAR)
12:02AM -34.3228 150.6219 229° Southwest 138 159 10,000  Level Aus ATC (RADAR)
12:03AM -34.3408 150.5958 230° Southwest 132 152 10,000  Level Aus ATC (RADAR)
12:03AM -34.3541 150.5764 230° Southwest 127 146 10,000  Level Aus ATC (RADAR)
12:04AM -34.3655 150.5598 230° Southwest 126 145 10,000  Level Aus ATC (RADAR)
12:04AM -34.3784 150.5402 232° Southwest 126 145 10,000  Level Aus ATC (RADAR)
12:05AM -34.3917 150.5210 230° Southwest 126 145 10,000  Level Aus ATC (RADAR)
12:06AM -34.4137 150.4889 230° Southwest 119 137 10,000  Level Aus ATC (RADAR)
12:06AM -34.4226 150.4758 231° Southwest 119 137 10,000  Level Aus ATC (RADAR)
12:07AM -34.4354 150.4565 231° Southwest 124 143 10,000 60 Level Aus ATC (RADAR)
12:08AM -34.4518 150.4330 230° Southwest 119 137 10,100 660 Climbing Aus ATC (RADAR)
12:08AM -34.4618 150.4193 228° Southwest 93 107 10,900 1,080 Climbing Aus ATC (RADAR)
12:09AM -34.4711 150.4049 232° Southwest 90 104 11,400 840 Climbing Aus ATC (RADAR)
12:09AM -34.4800 150.3921 230° Southwest 83 96 11,900 840 Climbing Aus ATC (RADAR)
12:10AM -34.4888 150.3785 232° Southwest 85 98 12,400 960 Climbing Aus ATC (RADAR)
12:11AM -34.5058 150.3535 230° Southwest 88 101 13,500 900 Climbing Aus ATC (RADAR)
12:12AM -34.5128 150.3437 229° Southwest 89 102 13,800 900 Climbing Aus ATC (RADAR)
12:12AM -34.5217 150.3308 230° Southwest 83 96 14,400 1,020 Climbing Aus ATC (RADAR)
12:13AM -34.5326 150.3143 231° Southwest 81 93 15,200 1,020 Climbing Aus ATC (RADAR)
12:13AM -34.5411 150.3020 230° Southwest 80 92 15,800 420 Climbing Aus ATC (RADAR)
12:14AM -34.5541 150.2811 233° Southwest 108 124 15,800  Level Aus ATC (RADAR)
12:15AM -34.5637 150.2677 229° Southwest 120 138 15,800  Level Aus ATC (RADAR)
12:15AM -34.5773 150.2474 231° Southwest 130 150 15,800  Level Aus ATC (RADAR)
12:16AM -34.6020 150.2121 230° Southwest 124 143 15,800  Level Aus ATC (RADAR)
12:17AM -34.6077 150.2041 229° Southwest 124 143 15,800  Level Aus ATC (RADAR)
12:17AM -34.6206 150.1842 232° Southwest 127 146 15,800  Level Aus ATC (RADAR)
12:18AM -34.6380 150.1586 230° Southwest 129 148 15,800  Level Aus ATC (RADAR)
12:18AM -34.6515 150.1388 230° Southwest 129 148 15,800  Level Aus ATC (RADAR)
12:19AM -34.6631 150.1210 232° Southwest 132 152 15,800  Level Aus ATC (RADAR)
12:20AM -34.6770 150.1010 230° Southwest 131 151 15,800  Level Aus ATC (RADAR)
12:20AM -34.6906 150.0810 230° Southwest 131 151 15,800  Level Aus ATC (RADAR)
12:21AM -34.7079 150.0549 231° Southwest 130 150 15,800  Level Aus ATC (RADAR)
12:21AM -34.7215 150.0351 230° Southwest 129 148 15,800  Level Aus ATC (RADAR)
12:22AM -34.7348 150.0154 231° Southwest 128 147 15,800  Level Aus ATC (RADAR)
12:23AM -34.7480 149.9959 231° Southwest 127 146 15,800  Level Aus ATC (RADAR)
12:23AM -34.7595 149.9785 231° Southwest 129 148 15,800  Level Aus ATC (RADAR)
12:24AM -34.7728 149.9594 230° Southwest 126 145 15,800  Level Aus ATC (RADAR)
12:24AM -34.7855 149.9402 231° Southwest 123 142 15,800  Level Aus ATC (RADAR)
12:25AM -34.7983 149.9208 231° Southwest 124 143 15,800  Level Aus ATC (RADAR)
12:25AM -34.8112 149.9017 231° Southwest 124 143 15,800  Level Aus ATC (RADAR)
12:26AM -34.8291 149.8754 230° Southwest 120 138 15,800  Level Aus ATC (RADAR)
12:27AM -34.8379 149.8620 231° Southwest 120 138 15,800  Level Aus ATC (RADAR)
12:27AM -34.8503 149.8435 231° Southwest 120 138 15,800  Level Aus ATC (RADAR)
12:28AM -34.8651 149.8219 230° Southwest 122 140 15,800  Level Aus ATC (RADAR)
12:29AM -34.8787 149.8018 230° Southwest 128 147 15,800  Level Aus ATC (RADAR)
12:29AM -34.8916 149.7813 232° Southwest 129 148 15,800 60 Level Aus ATC (RADAR)
12:30AM -34.9056 149.7608 230° Southwest 132 152 15,900 60 Climbing Aus ATC (RADAR)
12:30AM -34.9199 149.7393 231° Southwest 138 159 15,900  Level Aus ATC (RADAR)
12:31AM -34.9447 149.7026 230° Southwest 139 160 15,900  Level Aus ATC (RADAR)
12:32AM -34.9528 149.6904 231° Southwest 138 159 15,900  Level Aus ATC (RADAR)
12:32AM -34.9629 149.6750 231° Southwest 138 159 15,900  Level Aus ATC (RADAR)
12:33AM -34.9770 149.6541 231° Southwest 136 157 15,900  Level Aus ATC (RADAR)
12:33AM -34.9944 149.6279 231° Southwest 131 151 15,900  Level Aus ATC (RADAR)
12:34AM -35.0079 149.6080 230° Southwest 130 150 15,900  Level Aus ATC (RADAR)
12:34AM -35.0192 149.5908 231° Southwest 129 148 15,900  Level Aus ATC (RADAR)
12:35AM -35.0341 149.5683 231° Southwest 127 146 15,900  Level Aus ATC (RADAR)
12:36AM -35.0473 149.5489 230° Southwest 127 146 15,900  Level Aus ATC (RADAR)
12:37AM -35.0654 149.5210 232° Southwest 125 144 15,900  Level Aus ATC (RADAR)
12:37AM -35.0767 149.5043 231° Southwest 126 145 15,900  Level Aus ATC (RADAR)
12:38AM -35.0900 149.4841 231° Southwest 128 147 15,900  Level Aus ATC (RADAR)
12:38AM -35.1056 149.4608 231° Southwest 132 152 15,900  Level Aus ATC (RADAR)
12:39AM -35.1208 149.4383 231° Southwest 127 146 15,900  Level Aus ATC (RADAR)
12:40AM -35.1367 149.4140 231° Southwest 120 138 15,900  Level Aus ATC (RADAR)
12:40AM -35.1458 149.4007 230° Southwest 121 139 15,900  Level Aus ATC (RADAR)
12:41AM -35.1612 149.3774 231° Southwest 117 135 15,900  Level Aus ATC (RADAR)
12:42AM -35.1776 149.3528 231° Southwest 112 129 15,900  Level Aus ATC (RADAR)
12:42AM -35.1860 149.3396 232° Southwest 116 133 15,900  Level Aus ATC (RADAR)
12:43AM -35.1990 149.3193 232° Southwest 128 147 15,900  Level Aus ATC (RADAR)
12:43AM -35.2168 149.2927 231° Southwest 134 154 15,900  Level Aus ATC (RADAR)
12:44AM -35.2304 149.2724 231° Southwest 133 153 15,900  Level Aus ATC (RADAR)
12:45AM -35.2442 149.2514 231° Southwest 134 154 15,900  Level Aus ATC (RADAR)
12:45AM -35.2579 149.2303 231° Southwest 132 152 15,900  Level Aus ATC (RADAR)
12:46AM -35.2714 149.2099 231° Southwest 130 150 15,900  Level Aus ATC (RADAR)
12:47AM -35.2896 149.1833 230° Southwest 119 137 15,900  Level Aus ATC (RADAR)
12:47AM -35.2975 149.1709 232° Southwest 112 129 15,900  Level Aus ATC (RADAR)
12:48AM -35.3088 149.1540 231° Southwest 108 124 15,900  Level Aus ATC (RADAR)
12:48AM -35.3221 149.1334 232° Southwest 115 132 15,900  Level Aus ATC (RADAR)
12:49AM -35.3353 149.1107 234° Southwest 122 140 15,900  Level Aus ATC (RADAR)
12:49AM -35.3448 149.0911 239° Southwest 129 148 15,900  Level Aus ATC (RADAR)
12:50AM -35.3577 149.0674 236° Southwest 142 163 15,900  Level Aus ATC (RADAR)
12:51AM -35.3722 149.0433 234° Southwest 149 171 15,900  Level Aus ATC (RADAR)
12:51AM -35.3931 149.0082 234° Southwest 152 175 15,900  Level Aus ATC (RADAR)
12:52AM -35.4034 148.9909 234° Southwest 150 173 15,900  Level Aus ATC (RADAR)
12:52AM -35.4135 148.9737 234° Southwest 148 170 15,900  Level Aus ATC (RADAR)
12:53AM -35.4274 148.9507 233° Southwest 143 165 15,900  Level Aus ATC (RADAR)
12:54AM -35.4443 148.9227 233° Southwest 134 154 15,900  Level Aus ATC (RADAR)
12:54AM -35.4545 148.9056 234° Southwest 126 145 15,900  Level Aus ATC (RADAR)
12:55AM -35.4656 148.8864 234° Southwest 119 137 15,900  Level Aus ATC (RADAR)
12:55AM -35.4775 148.8667 234° Southwest 121 139 15,900  Level Aus ATC (RADAR)
12:56AM -35.4896 148.8461 234° Southwest 125 144 15,900  Level Aus ATC (RADAR)
12:57AM -35.5119 148.8091 233° Southwest 122 140 15,900  Level Aus ATC (RADAR)
12:57AM -35.5202 148.7950 234° Southwest 121 139 15,900  Level Aus ATC (RADAR)
12:58AM -35.5317 148.7755 234° Southwest 121 139 15,900  Level Aus ATC (RADAR)
12:59AM -35.5450 148.7525 235° Southwest 123 142 15,900  Level Aus ATC (RADAR)
12:59AM -35.5573 148.7319 234° Southwest 126 145 15,900  Level Aus ATC (RADAR)
01:00AM -35.5694 148.7118 234° Southwest 126 145 15,900  Level Aus ATC (RADAR)
01:00AM -35.5835 148.6874 235° Southwest 130 150 15,900  Level Aus ATC (RADAR)
01:01AM -35.5961 148.6667 233° Southwest 130 150 15,900  Level Aus ATC (RADAR)
01:02AM -35.6136 148.6376 233° Southwest 125 144 15,900  Level Aus ATC (RADAR)
01:02AM -35.6226 148.6223 234° Southwest 130 150 15,900  Level Aus ATC (RADAR)
01:03AM -35.6347 148.6015 234° Southwest 128 147 15,900  Level Aus ATC (RADAR)
01:04AM -35.6501 148.5755 234° Southwest 125 144 15,900  Level Aus ATC (RADAR)
01:04AM -35.6601 148.5581 235° Southwest 125 144 15,900  Level Aus ATC (RADAR)
01:05AM -35.6719 148.5390 233° Southwest 120 138 15,900  Level Aus ATC (RADAR)
01:05AM -35.6851 148.5161 234° Southwest 121 139 15,900  Level Aus ATC (RADAR)
01:06AM -35.6968 148.4966 234° Southwest 121 139 15,900  Level Aus ATC (RADAR)
01:07AM -35.7191 148.4584 234° Southwest 126 145 15,900  Level Aus ATC (RADAR)
01:08AM -35.7312 148.4377 234° Southwest 127 146 15,900  Level Aus ATC (RADAR)
01:08AM -35.7399 148.4227 234° Southwest 128 147 15,900  Level Aus ATC (RADAR)
01:09AM -35.7523 148.4018 234° Southwest 129 148 15,900  Level Aus ATC (RADAR)
01:09AM -35.7650 148.3804 234° Southwest 131 151 15,900  Level Aus ATC (RADAR)
01:10AM -35.7771 148.3579 237° Southwest 133 153 15,900  Level Aus ATC (RADAR)
01:10AM -35.7885 148.3412 230° Southwest 130 150 15,900  Level Aus ATC (RADAR)
01:11AM -35.8023 148.3174 234° Southwest 127 146 15,900  Level Aus ATC (RADAR)
01:11AM -35.8141 148.2969 235° Southwest 124 143 15,900  Level Aus ATC (RADAR)
01:12AM -35.8345 148.2621 234° Southwest 124 143 15,900  Level Aus ATC (RADAR)
01:13AM -35.8413 148.2505 234° Southwest 124 143 15,900  Level Aus ATC (RADAR)
01:13AM -35.8531 148.2298 235° Southwest 125 144 15,900  Level Aus ATC (RADAR)
01:14AM -35.8686 148.2030 235° Southwest 127 146 15,900  Level Aus ATC (RADAR)
01:15AM -35.8791 148.1854 234° Southwest 127 146 15,900  Level Aus ATC (RADAR)
01:16AM -35.9002 148.1495 234° Southwest 128 147 15,900  Level Aus ATC (RADAR)
01:16AM -35.9070 148.1372 236° Southwest 129 148 15,900  Level Aus ATC (RADAR)
01:16AM -35.9174 148.1195 234° Southwest 126 145 15,900 60 Level Aus ATC (RADAR)
01:17AM -35.9368 148.0861 234° Southwest 130 150 16,000 60 Climbing Aus ATC (RADAR)
01:18AM -35.9457 148.0704 235° Southwest 133 153 16,000  Level Aus ATC (RADAR)
01:18AM -35.9609 148.0444 234° Southwest 138 159 16,000  Level Aus ATC (RADAR)
01:19AM -35.9745 148.0213 234° Southwest 142 163 16,000  Level Aus ATC (RADAR)
01:20AM -35.9885 147.9971 234° Southwest 146 168 16,000  Level Aus ATC (RADAR)
01:20AM -36.0078 147.9635 235° Southwest 143 165 16,000  Level Aus ATC (RADAR)
01:21AM -36.0171 147.9475 234° Southwest 137 158 16,000  Level Aus ATC (RADAR)
01:21AM -36.0298 147.9264 234° Southwest 131 151 16,000  Level Aus ATC (RADAR)
01:22AM -36.0484 147.8940 234° Southwest 125 144 16,000  Level Aus ATC (RADAR)
01:23AM -36.0585 147.8762 235° Southwest 125 144 16,000  Level Aus ATC (RADAR)
01:23AM -36.0704 147.8548 235° Southwest 128 147 16,000  Level Aus ATC (RADAR)
01:24AM -36.0871 147.8262 234° Southwest 137 158 16,000  Level Aus ATC (RADAR)
01:25AM -36.1003 147.8031 235° Southwest 138 159 16,000  Level Aus ATC (RADAR)
01:26AM -36.1169 147.7749 234° Southwest 134 154 16,000  Level Aus ATC (RADAR)
01:26AM -36.1254 147.7590 236° Southwest 133 153 16,000  Level Aus ATC (RADAR)
01:27AM -36.1377 147.7375 235° Southwest 131 151 16,000  Level Aus ATC (RADAR)
01:27AM -36.1559 147.7063 234° Southwest 133 153 16,000  Level Aus ATC (RADAR)
01:28AM -36.1651 147.6899 235° Southwest 137 158 16,000  Level Aus ATC (RADAR)
01:28AM -36.1778 147.6676 235° Southwest 136 157 16,000  Level Aus ATC (RADAR)
01:29AM -36.1948 147.6379 235° Southwest 141 162 16,000  Level Aus ATC (RADAR)
01:30AM -36.2085 147.6151 233° Southwest 141 162 16,000 -300 Level Aus ATC (RADAR)
01:31AM -36.2277 147.5811 235° Southwest 145 167 15,600 -480 Descending Aus ATC (RADAR)
01:31AM -36.2335 147.5702 236° Southwest 149 171 15,500 -480 Descending Aus ATC (RADAR)
01:31AM -36.2473 147.5468 234° Southwest 145 167 15,200 -540 Descending Aus ATC (RADAR)
01:32AM -36.2648 147.5177 233° Southwest 140 161 14,800 -420 Descending Aus ATC (RADAR)
01:33AM -36.2776 147.4939 236° Southwest 140 161 14,700 -120 Descending Aus ATC (RADAR)
01:33AM -36.2908 147.4713 234° Southwest 139 160 14,700 240 Level Aus ATC (RADAR)
01:34AM -36.3022 147.4514 235° Southwest 139 160 15,000 1,200 Climbing Aus ATC (RADAR)
01:34AM -36.3136 147.4323 233° Southwest 115 132 16,000 840 Climbing Aus ATC (RADAR)
01:35AM -36.3252 147.4118 235° Southwest 125 144 16,000 660 Level Aus ATC (RADAR)
01:36AM -36.3463 147.3757 234° Southwest 106 122 17,100 960 Climbing Aus ATC (RADAR)
01:36AM -36.3504 147.3680 237° Southwest 104 120 17,300 720 Climbing Aus ATC (RADAR)
01:37AM -36.3598 147.3502 236° Southwest 104 120 17,700 480 Climbing Aus ATC (RADAR)
01:38AM -36.3742 147.3245 235° Southwest 111 128 18,000 180 Climbing Aus ATC (RADAR)
01:38AM -36.3862 147.3027 236° Southwest 128 147 18,000  Level Aus ATC (RADAR)
01:39AM -36.3996 147.2793 235° Southwest 143 165 18,000  Level Aus ATC (RADAR)
01:39AM -36.4154 147.2518 235° Southwest 146 168 18,000  Level Aus ATC (RADAR)
01:40AM -36.4299 147.2266 235° Southwest 152 175 18,000  Level Aus ATC (RADAR)
01:41AM -36.4504 147.1905 235° Southwest 153 176 18,000  Level Aus ATC (RADAR)
01:41AM -36.4602 147.1733 235° Southwest 147 169 18,000  Level Aus ATC (RADAR)
01:42AM -36.4737 147.1502 234° Southwest 141 162 18,000  Level Aus ATC (RADAR)
01:43AM -36.4913 147.1196 235° Southwest 130 150 18,000  Level Aus ATC (RADAR)
01:43AM -36.4999 147.1039 235° Southwest 130 150 18,000  Level Aus ATC (RADAR)
01:44AM -36.5143 147.0774 236° Southwest 139 160 18,000  Level Aus ATC (RADAR)
01:44AM -36.5322 147.0517 229° Southwest 147 169 18,000  Level Aus ATC (RADAR)
01:45AM -36.5480 147.0294 229° Southwest 145 167 18,000  Level Aus ATC (RADAR)
01:46AM -36.5636 147.0074 229° Southwest 146 168 18,000  Level Aus ATC (RADAR)
01:46AM -36.5796 146.9849 228° Southwest 147 169 18,000  Level Aus ATC (RADAR)
01:47AM -36.5952 146.9633 228° Southwest 143 165 18,000  Level Aus ATC (RADAR)
01:48AM -36.6231 146.9243 228° Southwest 137 158 18,000  Level Aus ATC (RADAR)
01:48AM -36.6336 146.9095 229° Southwest 138 159 18,000  Level Aus ATC (RADAR)
01:49AM -36.6506 146.8853 229° Southwest 140 161 18,000  Level Aus ATC (RADAR)
01:50AM -36.6685 146.8586 230° Southwest 151 174 18,000  Level Aus ATC (RADAR)
01:50AM -36.6854 146.8354 228° Southwest 155 178 18,000  Level Aus ATC (RADAR)
01:51AM -36.7012 146.8115 231° Southwest 153 176 18,000  Level Aus ATC (RADAR)
01:51AM -36.7173 146.7898 227° Southwest 146 168 18,000  Level Aus ATC (RADAR)
01:52AM -36.7307 146.7718 227° Southwest 142 163 18,000  Level Aus ATC (RADAR)
01:53AM -36.7579 146.7321 229° Southwest 139 160 18,000  Level Aus ATC (RADAR)
01:53AM -36.7687 146.7171 228° Southwest 139 160 18,000  Level Aus ATC (RADAR)
01:54AM -36.7839 146.6957 229° Southwest 141 162 18,000  Level Aus ATC (RADAR)
01:55AM -36.8017 146.6709 228° Southwest 145 167 18,000  Level Aus ATC (RADAR)
01:55AM -36.8169 146.6486 230° Southwest 145 167 18,000  Level Aus ATC (RADAR)
01:56AM -36.8321 146.6262 230° Southwest 145 167 18,000  Level Aus ATC (RADAR)
01:56AM -36.8479 146.6035 229° Southwest 147 169 18,000  Level Aus ATC (RADAR)
01:57AM -36.8635 146.5818 228° Southwest 144 166 18,000  Level Aus ATC (RADAR)
01:58AM -36.8871 146.5484 229° Southwest 140 161 18,000  Level Aus ATC (RADAR)
01:58AM -36.8957 146.5358 230° Southwest 142 163 18,000  Level Aus ATC (RADAR)
01:59AM -36.9114 146.5140 228° Southwest 145 167 18,000  Level Aus ATC (RADAR)
02:00AM -36.9311 146.4847 230° Southwest 146 168 18,000  Level Aus ATC (RADAR)
02:00AM -36.9469 146.4620 229° Southwest 147 169 18,000  Level Aus ATC (RADAR)
02:01AM -36.9635 146.4394 228° Southwest 150 173 18,000  Level Aus ATC (RADAR)
02:01AM -36.9770 146.4196 229° Southwest 151 174 18,000  Level Aus ATC (RADAR)
02:02AM -36.9931 146.3972 228° Southwest 149 171 18,000  Level Aus ATC (RADAR)
02:03AM -37.0172 146.3623 229° Southwest 143 165 18,000  Level Aus ATC (RADAR)
02:03AM -37.0259 146.3496 229° Southwest 143 165 18,000  Level Aus ATC (RADAR)
02:04AM -37.0396 146.3309 227° Southwest 145 167 18,000  Level Aus ATC (RADAR)
02:04AM -37.0556 146.3096 227° Southwest 145 167 18,000  Level Aus ATC (RADAR)
02:05AM -37.0734 146.2809 232° Southwest 140 161 18,000  Level Aus ATC (RADAR)
02:05AM -37.0893 146.2596 227° Southwest 142 163 18,000  Level Aus ATC (RADAR)
02:06AM -37.1034 146.2383 230° Southwest 139 160 18,000  Level Aus ATC (RADAR)
02:07AM -37.1172 146.2198 227° Southwest 143 165 18,000  Level Aus ATC (RADAR)
02:07AM -37.1316 146.1973 231° Southwest 144 166 18,000  Level Aus ATC (RADAR)
02:08AM -37.1585 146.1587 229° Southwest 147 169 18,000  Level Aus ATC (RADAR)
02:09AM -37.1698 146.1431 228° Southwest 145 167 18,000  Level Aus ATC (RADAR)
02:09AM -37.1846 146.1211 230° Southwest 142 163 18,000 -240 Level Aus ATC (RADAR)
02:10AM -37.2023 146.0943 230° Southwest 152 175 17,700 -600 Descending Aus ATC (RADAR)
02:10AM -37.2198 146.0689 229° Southwest 164 189 17,300 -720 Descending Aus ATC (RADAR)
02:11AM -37.2403 146.0399 228° Southwest 166 191 16,800 -780 Descending Aus ATC (RADAR)
02:12AM -37.2553 146.0187 228° Southwest 163 188 16,400 -720 Descending Aus ATC (RADAR)
02:12AM -37.2743 145.9909 229° Southwest 160 184 16,000 -660 Descending Aus ATC (RADAR)
02:13AM -37.3025 145.9489 230° Southwest 159 183 15,300 -720 Descending Aus ATC (RADAR)
02:14AM -37.3144 145.9317 229° Southwest 158 182 15,000 -720 Descending Aus ATC (RADAR)
02:14AM -37.3317 145.9070 229° Southwest 162 186 14,600 -720 Descending Aus ATC (RADAR)
02:15AM -37.3513 145.8787 229° Southwest 160 184 14,100 -720 Descending Aus ATC (RADAR)
02:15AM -37.3682 145.8544 229° Southwest 159 183 13,700 -720 Descending Aus ATC (RADAR)
02:16AM -37.3833 145.8313 230° Southwest 149 171 13,300 -720 Descending Aus ATC (RADAR)
02:17AM -37.3984 145.8091 229° Southwest 144 166 12,900 -600 Descending Aus ATC (RADAR)
02:17AM -37.4137 145.7876 228° Southwest 142 163 12,600 -660 Descending Aus ATC (RADAR)
02:18AM -37.4397 145.7492 229° Southwest 147 169 11,900 -660 Descending Aus ATC (RADAR)
02:19AM -37.4509 145.7328 229° Southwest 149 171 11,700 -720 Descending Aus ATC (RADAR)
02:19AM -37.4634 145.7139 230° Southwest 143 165 11,300 -660 Descending Aus ATC (RADAR)
02:20AM -37.4824 145.6857 230° Southwest 142 163 10,900 -600 Descending Aus ATC (RADAR)
02:20AM -37.4982 145.6630 229° Southwest 147 169 10,500 -660 Descending Aus ATC (RADAR)
02:21AM -37.5112 145.6437 230° Southwest 145 167 10,200 -660 Descending Aus ATC (RADAR)
02:22AM -37.5268 145.6209 229° Southwest 146 168 9,800 -780 Descending Aus ATC (RADAR)
02:22AM -37.5424 145.5982 229° Southwest 146 168 9,300 -720 Descending Aus ATC (RADAR)
02:23AM -37.5597 145.5723 230° Southwest 146 168 8,900 -660 Descending Aus ATC (RADAR)
02:23AM -37.5756 145.5485 230° Southwest 152 175 8,500 -720 Descending Aus ATC (RADAR)
02:24AM -37.5921 145.5243 229° Southwest 155 178 8,100 -600 Descending Aus ATC (RADAR)
02:25AM -37.6083 145.5009 229° Southwest 152 175 7,800 -660 Descending Aus ATC (RADAR)
02:25AM -37.6215 145.4819 229° Southwest 147 169 7,400 -660 Descending Aus ATC (RADAR)
02:26AM -37.6360 145.4599 230° Southwest 141 162 7,100 -600 Descending Aus ATC (RADAR)
02:26AM -37.6500 145.4391 230° Southwest 136 157 6,700 -660 Descending Aus ATC (RADAR)
02:27AM -37.6619 145.4211 230° Southwest 134 154 6,400 -600 Descending Aus ATC (RADAR)
02:27AM -37.6753 145.4018 229° Southwest 126 145 6,100 -540 Descending Aus ATC (RADAR)
02:28AM -37.6994 145.3656 230° Southwest 123 142 5,500 -540 Descending Aus ATC (RADAR)
02:29AM -37.7091 145.3516 229° Southwest 125 144 5,300 -540 Descending Aus ATC (RADAR)
02:29AM -37.7249 145.3355 219° Southwest 125 144 5,000 -540 Descending Aus ATC (RADAR)
02:30AM -37.7477 145.3131 218° Southwest 138 159 4,600 -600 Descending Aus ATC (RADAR)
02:31AM -37.7633 145.2978 218° Southwest 142 163 4,300 -780 Descending Aus ATC (RADAR)
02:31AM -37.7825 145.2791 217° Southwest 150 173 3,800 -780 Descending Aus ATC (RADAR)
02:32AM -37.8010 145.2610 218° Southwest 146 168 3,400 -660 Descending Aus ATC (RADAR)
02:32AM -37.8224 145.2404 217° Southwest 142 163 3,000 -660 Descending Aus ATC (RADAR)
02:33AM -37.8542 145.2088 218° Southwest 133 153 2,300 -600 Descending Aus ATC (RADAR)
02:34AM -37.8658 145.1979 216° Southwest 127 146 2,100 -420 Descending Aus ATC (RADAR)
02:34AM -37.8812 145.1828 218° Southwest 121 139 1,900 -480 Descending Aus ATC (RADAR)
02:35AM -37.9028 145.1619 217° Southwest 133 153 1,500 -480 Descending Aus ATC (RADAR)
02:36AM -37.9189 145.1460 218° Southwest 130 150 1,300 -480 Descending Aus ATC (RADAR)
02:36AM -37.9356 145.1298 217° Southwest 131 151 1,000 -480 Descending Aus ATC (RADAR)
02:37AM -37.9464 145.1093 236° Southwest 122 140 800 -480 Descending Aus ATC (RADAR)
02:37AM -37.9570 145.0976 221° Southwest 110 127 500 -600 Descending Aus ATC (RADAR)